Portada
METAR-TAF:

METAR-TAF

Aeroports :

Luganville, Illa Espíritu Santo, Vanuatu

latitud: 15-31S, longitud: 167-13E, altitud: 41 m

Observació

L'informe es va fer fa 51 minuts, a les 00:00 UTC
Vent 7 kt del Sud-Est
Temperatura 30°C
Humitat 75%
Pressió 1012 hPa
Visibilitat 10 km o més
Cel ennuvolat a una alçada de 2000 ft

METAR: NVSS 220000Z 13007KT 9999 BKN020 30/25 Q1012

Hora: 11:51 (00:51 UTC)

Pronòstic

L'informe es va fer fa 2 hores i 29 minuts, a les 22:22 UTC
Pronòstic vàlid del 22 a les 00 UTC al 22 a les 24 UTC
Vent 5 kt del Sud-Est
Visibilitat 10 km o més
Núvols disperses a una alçada de 2200 ft

TAF: NVSS 212222Z 2200/2224 13005KT 9999 SCT022

Observacions i pronòstics meteorològics de més de 4000 aeroports (METAR i TAF).

Les estacions disponibles són els punts grocs i vermells al mapa.

Posi el ratolí al punt desitjat per veure el nom de l'estació.

Feu clic per veure les observacions i els pronòstics meteorològics.

Per canviar el mapa: feu clic els botons verds amb una creu de color negre per apropar; al botó verd amb un guió per allunyar la imatge; o en les fletxes verdes per a mapes adjacents.


METAR-TAF: